Time;durP1;ratioP1;P1;durP2;ratioP2;P2;SDS_P1;SDS_P2;PMS_P1;PMS_P2;Temp;Humidity;BMP_temperature;BMP_pressure;BME280_temperature;BME280_humidity;BME280_pressure;Samples;Min_cycle;Max_cycle;Signal;HPM_P1;HPM_P2
2021/04/15 00:00:21;;;;;;;10.02;5.65;;;;;;;3.42;93.94;102479.56;5068575;28;20119;-70
2021/04/15 00:02:47;;;;;;;10.55;5.38;;;;;;;3.42;94.08;102482.22;5077685;28;20540;-70
2021/04/15 00:05:14;;;;;;;9.52;5.20;;;;;;;3.40;93.99;102476.03;5070183;28;20063;-70
2021/04/15 00:07:40;;;;;;;7.78;5.15;;;;;;;3.39;94.14;102476.94;5069879;28;20106;-70
2021/04/15 00:10:09;;;;;;;8.93;5.28;;;;;;;3.37;94.21;102478.72;5069470;28;20510;-71
2021/04/15 00:12:35;;;;;;;11.05;4.88;;;;;;;3.31;94.38;102474.31;5067712;28;20021;-71
2021/04/15 00:15:01;;;;;;;9.52;4.82;;;;;;;3.28;94.55;102482.28;5075496;28;21006;-71
2021/04/15 00:17:26;;;;;;;11.50;5.32;;;;;;;3.24;94.84;102478.78;5073260;28;20062;-71
2021/04/15 00:19:52;;;;;;;9.57;4.57;;;;;;;3.20;94.77;102486.78;5069719;28;20020;-71
2021/04/15 00:22:17;;;;;;;14.37;5.37;;;;;;;3.13;94.87;102485.06;5103384;28;20036;-71
2021/04/15 00:24:42;;;;;;;11.10;5.55;;;;;;;3.07;95.01;102482.44;5069663;28;20117;-71
2021/04/15 00:27:08;;;;;;;11.38;5.10;;;;;;;3.02;95.31;102477.16;5071172;28;20131;-71
2021/04/15 00:29:33;;;;;;;12.77;5.30;;;;;;;2.98;95.23;102488.66;5068445;28;20416;-71
2021/04/15 00:31:59;;;;;;;11.52;5.38;;;;;;;2.94;95.53;102481.63;5068202;28;20036;-70
2021/04/15 00:34:24;;;;;;;10.48;5.32;;;;;;;2.91;95.48;102478.06;5070358;28;20024;-71
2021/04/15 00:36:49;;;;;;;11.93;6.13;;;;;;;2.91;95.57;102476.31;5069048;28;20033;-71
2021/04/15 00:39:16;;;;;;;8.68;4.60;;;;;;;2.88;95.44;102481.66;5070986;28;20503;-71
2021/04/15 00:41:41;;;;;;;9.18;4.85;;;;;;;2.85;95.56;102477.22;5070091;28;20111;-71
2021/04/15 00:44:07;;;;;;;14.05;6.18;;;;;;;2.83;95.50;102480.78;5069681;28;20025;-71
2021/04/15 00:46:43;;;;;;;14.55;5.57;;;;;;;2.80;95.43;102475.47;5068352;28;20404;-71
2021/04/15 00:49:12;;;;;;;10.50;5.38;;;;;;;2.74;95.57;102470.22;5073143;28;20029;-71
2021/04/15 00:51:45;;;;;;;8.32;5.15;;;;;;;2.68;95.80;102467.59;5067173;28;20040;-71
2021/04/15 00:54:25;;;;;;;;;;;;;;;2.65;96.01;102460.53;5049059;28;20105;-71
2021/04/15 00:56:50;;;;;;;10.02;4.85;;;;;;;2.64;96.17;102466.72;5068471;28;20404;-71
2021/04/15 00:59:16;;;;;;;11.60;5.13;;;;;;;2.61;96.01;102460.53;5067689;28;20036;-71
2021/04/15 01:01:41;;;;;;;8.48;4.68;;;;;;;2.55;96.28;102466.75;5102447;28;20403;-71
2021/04/15 01:04:07;;;;;;;8.30;5.30;;;;;;;2.54;96.40;102456.13;5069497;28;20495;-71
2021/04/15 01:06:33;;;;;;;9.80;5.18;;;;;;;2.48;96.23;102464.09;5102116;28;20050;-71
2021/04/15 01:08:59;;;;;;;9.80;5.82;;;;;;;2.37;96.77;102461.50;5069619;28;20079;-71
2021/04/15 01:12:07;;;;;;;8.05;4.82;;;;;;;2.29;97.29;102464.16;5084549;28;20480;-71
2021/04/15 01:14:46;;;;;;;10.10;5.35;;;;;;;2.25;97.70;102456.22;5066013;28;20072;-70
2021/04/15 01:17:45;;;;;;;13.02;5.80;;;;;;;2.21;98.03;102450.06;5068461;28;20047;-71
2021/04/15 01:20:39;;;;;;;10.38;5.38;;;;;;;2.21;98.25;102455.38;5066302;28;20061;-71
2021/04/15 01:23:10;;;;;;;;;;;;;;;2.21;98.18;102457.13;5068474;28;20575;-71
2021/04/15 01:26:05;;;;;;;8.48;5.10;;;;;;;2.18;98.03;102452.72;5096507;28;19950;-71
2021/04/15 01:29:06;;;;;;;10.63;4.97;;;;;;;2.17;97.96;102450.94;5063085;28;20025;-71
2021/04/15 01:31:35;;;;;;;10.75;4.90;;;;;;;2.16;97.85;102448.31;5067632;28;20098;-71
2021/04/15 01:34:07;;;;;;;8.93;5.22;;;;;;;2.11;97.98;102461.56;5067656;28;20035;-72
2021/04/15 01:36:41;;;;;;;13.00;5.40;;;;;;;2.07;97.95;102451.84;5066893;28;20048;-71
2021/04/15 01:39:15;;;;;;;11.32;5.65;;;;;;;2.00;98.23;102458.94;5069213;28;20459;-72
2021/04/15 01:41:50;;;;;;;10.32;5.45;;;;;;;1.96;98.55;102451.00;5067576;28;20051;-71
2021/04/15 01:44:31;;;;;;;11.05;5.95;;;;;;;1.95;98.79;102451.88;5069522;28;20035;-71
2021/04/15 01:47:03;;;;;;;13.05;5.00;;;;;;;1.93;98.69;102453.63;5066658;28;20056;-71
2021/04/15 01:49:35;;;;;;;9.93;4.65;;;;;;;1.90;98.52;102449.25;5068136;28;20040;-70
2021/04/15 01:52:01;;;;;;;8.60;4.93;;;;;;;1.87;98.60;102458.94;5049014;28;20043;-71
2021/04/15 01:54:39;;;;;;;9.32;4.65;;;;;;;1.81;98.71;102456.28;5070089;28;20028;-71
2021/04/15 01:57:15;;;;;;;9.57;5.55;;;;;;;1.77;98.85;102457.19;5069030;28;20032;-71
2021/04/15 01:59:45;;;;;;;8.70;5.43;;;;;;;1.73;98.97;102445.69;5064065;28;20036;-71
2021/04/15 02:02:20;;;;;;;10.43;5.50;;;;;;;1.73;98.99;102450.13;5063344;28;20388;-71
2021/04/15 02:04:55;;;;;;;9.18;5.10;;;;;;;1.73;98.97;102458.09;5068425;28;20040;-71
2021/04/15 02:07:23;;;;;;;9.45;5.80;;;;;;;1.74;98.76;102462.47;5061132;28;20100;-71
2021/04/15 02:09:51;;;;;;;11.02;5.70;;;;;;;1.71;98.70;102454.53;5066313;28;20032;-70
2021/04/15 02:12:23;;;;;;;8.48;4.88;;;;;;;1.69;98.69;102465.13;5061277;28;20489;-71
2021/04/15 02:14:59;;;;;;;13.93;5.90;;;;;;;1.68;98.63;102457.19;5100742;28;20028;-71
2021/04/15 02:17:25;;;;;;;9.45;5.35;;;;;;;1.67;98.85;102452.78;5063299;28;20294;-71
2021/04/15 02:19:55;;;;;;;10.63;5.55;;;;;;;1.65;99.00;102447.50;5099996;28;20035;-71
2021/04/15 02:22:43;;;;;;;9.98;5.55;;;;;;;1.63;99.57;102455.41;5068992;28;20488;-71
2021/04/15 02:25:43;;;;;;;10.80;5.88;;;;;;;1.63;99.94;102459.84;5069266;28;20062;-71
2021/04/15 02:28:30;;;;;;;12.25;5.63;;;;;;;1.67;100.00;102466.03;5066217;28;20054;-71
2021/04/15 02:31:07;;;;;;;12.02;6.10;;;;;;;1.60;100.00;102466.00;5069464;28;20119;-71
2021/04/15 02:33:46;;;;;;;11.18;6.13;;;;;;;1.57;100.00;102466.00;5072634;28;20020;-71
2021/04/15 02:36:14;;;;;;;11.65;6.70;;;;;;;1.58;100.00;102462.47;5071163;28;20452;-71
2021/04/15 02:39:01;;;;;;;10.55;6.55;;;;;;;1.55;100.00;102462.47;5073630;28;20075;-70
2021/04/15 02:41:32;;;;;;;9.15;5.80;;;;;;;1.51;100.00;102458.06;5068566;28;20392;-71
2021/04/15 02:44:09;;;;;;;12.85;6.00;;;;;;;1.51;100.00;102459.81;5088735;28;20025;-71
2021/04/15 02:46:45;;;;;;;14.73;6.40;;;;;;;1.51;100.00;102459.81;5069530;28;20033;-71
2021/04/15 02:49:14;;;;;;;9.55;5.90;;;;;;;1.47;100.00;102456.31;5071575;28;20031;-71
2021/04/15 02:51:47;;;;;;;14.48;6.07;;;;;;;1.50;100.00;102458.94;5071774;28;20034;-71
2021/04/15 02:54:26;;;;;;;13.00;6.35;;;;;;;1.49;100.00;102459.81;5071269;28;20106;-71
2021/04/15 02:56:59;;;;;;;10.27;5.75;;;;;;;1.47;100.00;102461.59;5103198;28;20025;-71
2021/04/15 02:59:47;;;;;;;9.15;5.78;;;;;;;1.50;100.00;102458.06;5071758;28;20085;-71
2021/04/15 03:02:22;;;;;;;10.88;6.07;;;;;;;1.47;100.00;102461.59;5069621;28;20047;-71
2021/04/15 03:04:53;;;;;;;23.73;8.80;;;;;;;1.40;100.00;102462.47;5069498;28;20442;-71
2021/04/15 03:07:22;;;;;;;22.58;8.68;;;;;;;1.38;100.00;102463.34;5072582;28;20036;-71
2021/04/15 03:09:48;;;;;;;13.00;6.70;;;;;;;1.43;100.00;102467.75;5104083;28;20392;-71
2021/04/15 03:12:26;;;;;;;15.98;7.38;;;;;;;1.36;100.00;102460.69;5103395;28;20024;-71
2021/04/15 03:15:01;;;;;;;31.65;9.65;;;;;;;1.34;100.00;102462.47;5085255;28;20476;-71
2021/04/15 03:17:30;;;;;;;18.20;8.02;;;;;;;1.33;100.00;102460.69;5072583;28;20039;-71
2021/04/15 03:20:01;;;;;;;18.98;10.20;;;;;;;1.30;100.00;102454.53;5071572;28;20029;-71
2021/04/15 03:22:36;;;;;;;19.10;8.05;;;;;;;1.27;100.00;102458.03;5072088;28;20032;-71
2021/04/15 03:25:03;;;;;;;12.10;6.25;;;;;;;1.22;100.00;102459.81;5069476;28;20040;-71
2021/04/15 03:27:53;;;;;;;12.63;6.05;;;;;;;1.14;100.00;102448.31;5071401;28;20020;-71
2021/04/15 03:30:28;;;;;;;9.77;6.22;;;;;;;1.08;100.00;102456.22;5070464;28;20115;-71
2021/04/15 03:33:33;;;;;;;9.98;5.72;;;;;;;1.04;100.00;102444.78;5104133;28;20024;-71
2021/04/15 03:36:06;;;;;;;11.23;6.32;;;;;;;1.08;100.00;102453.59;5053820;28;20047;-71
2021/04/15 03:38:37;;;;;;;12.55;7.72;;;;;;;1.01;100.00;102459.72;5070617;28;20086;-71
2021/04/15 03:41:10;;;;;;;19.65;7.50;;;;;;;0.94;100.00;102457.94;5071651;28;20472;-71
2021/04/15 03:43:47;;;;;;;14.18;6.88;;;;;;;0.91;100.00;102460.59;5065629;28;20056;-70
2021/04/15 03:46:24;;;;;;;15.55;6.50;;;;;;;0.90;100.00;102462.34;5052595;28;20040;-71
2021/04/15 03:48:54;;;;;;;11.15;5.90;;;;;;;0.90;100.00;102464.13;5068972;28;20025;-71
2021/04/15 03:51:24;;;;;;;12.05;6.32;;;;;;;0.87;100.00;102469.38;5049576;28;20029;-71
2021/04/15 03:53:56;;;;;;;18.52;9.07;;;;;;;0.87;100.00;102472.91;5071840;28;20056;-71
2021/04/15 03:56:50;;;;;;;26.02;11.98;;;;;;;0.85;100.00;102472.03;5103635;28;20135;-71
2021/04/15 03:59:22;;;;;;;15.90;8.65;;;;;;;0.85;100.00;102471.16;5065360;28;20032;-71
2021/04/15 04:01:54;;;;;;;13.60;7.80;;;;;;;0.80;100.00;102469.34;5061701;28;20037;-71
2021/04/15 04:04:49;;;;;;;15.77;7.70;;;;;;;0.78;100.00;102476.41;5068375;28;20025;-71
2021/04/15 04:07:26;;;;;;;12.38;7.05;;;;;;;0.76;100.00;102472.88;5066855;28;20072;-70
2021/04/15 04:10:14;;;;;;;14.02;7.57;;;;;;;0.74;100.00;102479.91;5103329;28;20047;-71
2021/04/15 04:12:54;;;;;;;15.13;7.35;;;;;;;0.75;100.00;102484.31;5071253;28;20047;-70
2021/04/15 04:15:26;;;;;;;12.90;6.45;;;;;;;0.76;100.00;102483.44;5070222;28;20036;-71
2021/04/15 04:18:00;;;;;;;17.55;8.55;;;;;;;0.77;100.00;102485.22;5070241;28;20040;-71
2021/04/15 04:20:29;;;;;;;17.30;9.48;;;;;;;0.79;100.00;102483.47;5067882;28;20040;-71
2021/04/15 04:23:04;;;;;;;14.45;8.38;;;;;;;0.75;100.00;102481.69;5069480;28;20066;-71
2021/04/15 04:25:41;;;;;;;13.50;7.22;;;;;;;0.70;100.00;102487.81;5053134;28;20048;-71
2021/04/15 04:28:29;;;;;;;12.38;6.80;;;;;;;0.67;100.00;102488.72;5071156;28;20481;-70
2021/04/15 04:31:06;;;;;;;14.55;7.60;;;;;;;0.65;100.00;102490.47;5071073;28;20630;-71
2021/04/15 04:33:40;;;;;;;17.55;7.68;;;;;;;0.62;100.00;102489.53;5071025;28;20089;-71
2021/04/15 04:36:08;;;;;;;13.57;7.32;;;;;;;0.63;100.00;102496.59;5066494;28;20048;-71
2021/04/15 04:38:35;;;;;;;13.50;7.20;;;;;;;0.63;100.00;102497.47;5068547;28;20032;-69
2021/04/15 04:41:07;;;;;;;16.02;7.10;;;;;;;0.63;100.00;102494.84;5069378;28;20064;-70
2021/04/15 04:43:41;;;;;;;13.63;6.35;;;;;;;0.63;100.00;102497.47;5068992;28;20036;-70
2021/04/15 04:46:15;;;;;;;12.05;6.82;;;;;;;0.64;100.00;102499.25;5067231;28;20047;-71
2021/04/15 04:48:50;;;;;;;11.38;6.35;;;;;;;0.65;100.00;102497.50;5102262;28;20025;-70
2021/04/15 04:51:18;;;;;;;11.18;6.40;;;;;;;0.66;100.00;102491.34;5068449;28;20029;-70
2021/04/15 04:53:48;;;;;;;20.55;7.55;;;;;;;0.68;100.00;102495.75;5064638;28;20056;-70
2021/04/15 04:56:26;;;;;;;10.63;6.68;;;;;;;0.71;100.00;102498.41;5067963;28;20028;-70
2021/04/15 04:59:03;;;;;;;14.10;7.03;;;;;;;0.73;100.00;102499.31;5069947;28;20051;-71
2021/04/15 05:01:30;;;;;;;16.30;7.18;;;;;;;0.74;100.00;102498.41;5102265;28;20036;-71
2021/04/15 05:04:00;;;;;;;13.57;7.18;;;;;;;0.79;100.00;102509.91;5066049;28;20028;-71
2021/04/15 05:06:29;;;;;;;11.48;6.47;;;;;;;0.82;100.00;102499.34;5069528;28;20043;-71
2021/04/15 05:09:22;;;;;;;18.95;7.70;;;;;;;0.89;100.00;102500.25;5067660;28;20024;-70
2021/04/15 05:11:50;;;;;;;18.77;8.25;;;;;;;0.92;100.00;102507.31;5101510;28;20033;-71
2021/04/15 05:14:19;;;;;;;14.88;7.90;;;;;;;0.95;100.00;102505.56;5100102;28;20028;-71
2021/04/15 05:17:08;;;;;;;21.05;8.30;;;;;;;1.00;100.00;102508.22;5101862;28;20472;-71
2021/04/15 05:19:35;;;;;;;15.77;7.93;;;;;;;1.04;100.00;102510.88;5068046;28;20093;-71
2021/04/15 05:22:04;;;;;;;14.73;7.38;;;;;;;1.10;100.00;102515.31;5068261;28;20162;-71
2021/04/15 05:24:46;;;;;;;14.10;8.07;;;;;;;1.15;100.00;102513.56;5101464;28;20111;-71
2021/04/15 05:27:14;;;;;;;14.57;7.20;;;;;;;1.20;100.00;102517.97;5069144;28;20036;-71
2021/04/15 05:29:42;;;;;;;17.95;7.20;;;;;;;1.24;100.00;102526.78;5068113;28;20111;-71
2021/04/15 05:32:13;;;;;;;16.75;8.38;;;;;;;1.45;100.00;102524.22;5067272;28;20621;-71
2021/04/15 05:34:44;;;;;;;15.70;7.55;;;;;;;1.46;100.00;102523.34;5067440;28;20036;-71
2021/04/15 05:37:18;;;;;;;19.20;8.10;;;;;;;1.46;100.00;102518.03;5084629;28;20097;-71
2021/04/15 05:39:44;;;;;;;13.98;8.55;;;;;;;1.44;100.00;102522.44;5072741;28;20066;-71
2021/04/15 05:42:21;;;;;;;18.50;8.55;;;;;;;1.49;100.00;102525.97;5067832;28;20036;-71
2021/04/15 05:44:53;;;;;;;14.85;8.65;;;;;;;1.63;100.00;102526.88;5067709;28;20017;-71
2021/04/15 05:47:26;;;;;;;16.23;8.73;;;;;;;1.69;100.00;102527.78;5069065;28;20446;-71
2021/04/15 05:49:56;;;;;;;15.23;8.10;;;;;;;1.79;100.00;102534.84;5067300;28;20286;-71
2021/04/15 05:52:30;;;;;;;12.98;7.43;;;;;;;1.89;100.00;102531.31;5069274;28;20356;-71
2021/04/15 05:55:03;;;;;;;16.40;8.85;;;;;;;1.99;100.00;102533.97;5063865;28;20071;-71
2021/04/15 05:57:34;;;;;;;14.65;8.77;;;;;;;2.16;100.00;102535.75;5062722;28;20028;-71
2021/04/15 06:00:09;;;;;;;12.80;7.55;;;;;;;2.29;100.00;102533.06;5072344;28;20085;-71
2021/04/15 06:02:54;;;;;;;16.33;8.02;;;;;;;2.40;100.00;102527.75;5065167;28;20051;-71
2021/04/15 06:05:26;;;;;;;12.55;7.82;;;;;;;2.57;100.00;102535.66;5067111;28;20157;-71
2021/04/15 06:07:54;;;;;;;13.20;7.60;;;;;;;2.66;100.00;102530.31;5068227;28;20550;-71
2021/04/15 06:10:24;;;;;;;17.30;7.60;;;;;;;2.62;100.00;102537.41;5065977;28;20032;-71
2021/04/15 06:13:10;;;;;;;14.35;7.85;;;;;;;2.65;100.00;102541.84;5069050;28;20492;-70
2021/04/15 06:15:42;;;;;;;19.85;8.27;;;;;;;2.54;100.00;102540.97;5067475;28;20098;-71
2021/04/15 06:18:32;;;;;;;20.52;8.02;;;;;;;2.52;100.00;102530.38;5048859;28;20025;-71
2021/04/15 06:21:01;;;;;;;14.32;7.43;;;;;;;2.63;100.00;102538.31;5063994;28;20024;-72
2021/04/15 06:23:30;;;;;;;17.52;8.38;;;;;;;2.71;100.00;102536.53;5067999;28;20102;-71
2021/04/15 06:25:57;;;;;;;22.95;8.88;;;;;;;2.67;100.00;102534.75;5067960;28;20043;-71
2021/04/15 06:28:26;;;;;;;25.00;7.93;;;;;;;2.73;100.00;102545.34;5101773;28;20036;-70
2021/04/15 06:31:01;;;;;;;17.00;8.05;;;;;;;2.77;100.00;102541.81;5067905;28;20040;-71
2021/04/15 06:33:27;;;;;;;20.92;8.23;;;;;;;2.83;100.00;102536.47;5069111;28;20030;-71
2021/04/15 06:35:55;;;;;;;20.38;7.53;;;;;;;2.95;100.00;102546.16;5065118;28;20048;-71
2021/04/15 06:38:40;;;;;;;22.95;9.30;;;;;;;3.08;100.00;102542.56;5068086;28;20086;-71
2021/04/15 06:41:32;;;;;;;22.55;8.75;;;;;;;3.23;100.00;102542.47;5098483;28;20412;-71
2021/04/15 06:44:32;;;;;;;21.90;9.53;;;;;;;3.41;100.00;102541.50;5068315;28;20141;-71
2021/04/15 06:47:30;;;;;;;19.63;9.38;;;;;;;3.62;100.00;102536.97;5065820;28;20124;-72
2021/04/15 06:50:07;;;;;;;17.80;9.63;;;;;;;3.90;100.00;102542.06;5077013;28;20036;-72
2021/04/15 06:52:39;;;;;;;22.33;8.82;;;;;;;4.18;100.00;102537.41;5070068;28;20547;-72
2021/04/15 06:55:29;;;;;;;32.83;14.35;;;;;;;4.59;99.40;102537.88;5078553;28;20091;-72
2021/04/15 06:58:06;;;;;;;25.52;10.77;;;;;;;5.19;97.10;102544.25;5064763;28;20060;-72
2021/04/15 07:00:42;;;;;;;26.92;10.68;;;;;;;6.06;92.42;102545.66;5064955;28;20638;-72
2021/04/15 07:03:32;;;;;;;21.05;9.25;;;;;;;6.96;86.91;102552.91;5063998;28;20032;-72
2021/04/15 07:06:33;;;;;;;14.52;7.95;;;;;;;7.90;81.30;102550.78;5059405;28;20040;-72
2021/04/15 07:09:29;;;;;;;37.28;12.73;;;;;;;8.45;75.67;102554.81;5054724;28;20045;-72
2021/04/15 07:12:09;;;;;;;23.00;8.27;;;;;;;8.77;72.88;102553.91;5061788;28;20028;-72
2021/04/15 07:14:59;;;;;;;15.07;8.07;;;;;;;9.36;70.78;102557.56;5066528;28;20118;-72
2021/04/15 07:17:33;;;;;;;17.75;7.90;;;;;;;9.70;68.92;102552.91;5069180;28;20032;-72
2021/04/15 07:19:58;;;;;;;19.73;9.60;;;;;;;10.00;66.54;102560.88;5082911;28;20158;-72
2021/04/15 07:22:41;;;;;;;18.85;7.63;;;;;;;9.98;64.86;102558.28;5103801;28;20051;-72
2021/04/15 07:25:10;;;;;;;22.60;8.93;;;;;;;9.38;65.50;102554.84;5068593;28;20396;-73
2021/04/15 07:28:00;;;;;;;17.27;6.40;;;;;;;9.37;65.49;102562.00;5071185;28;20078;-72
2021/04/15 07:30:29;;;;;;;20.05;7.07;;;;;;;9.20;66.36;102561.59;5070600;28;20032;-72
2021/04/15 07:33:24;;;;;;;21.70;7.90;;;;;;;9.99;64.92;102562.72;5069927;28;20678;-72
2021/04/15 07:35:59;;;;;;;16.88;7.82;;;;;;;10.26;62.82;102563.63;5066222;28;20593;-72
2021/04/15 07:38:56;;;;;;;21.75;6.63;;;;;;;10.04;62.66;102567.94;5073110;28;20074;-72
2021/04/15 07:41:35;;;;;;;19.58;7.80;;;;;;;10.55;61.89;102562.66;5065654;28;21543;-72
2021/04/15 07:44:19;;;;;;;18.25;6.18;;;;;;;9.62;63.42;102554.97;5070484;28;20036;-72
2021/04/15 07:47:03;;;;;;;20.77;6.40;;;;;;;9.25;65.27;102554.34;5070809;28;20032;-72
2021/04/15 07:49:40;;;;;;;21.13;7.28;;;;;;;9.38;68.17;102568.25;5066811;28;20032;-72
2021/04/15 07:52:30;;;;;;;20.60;7.00;;;;;;;9.98;65.15;102562.75;5076089;28;20452;-72
2021/04/15 07:55:37;;;;;;;19.63;8.40;;;;;;;10.29;62.93;102568.91;5074419;28;20044;-72
2021/04/15 07:58:41;;;;;;;21.05;8.75;;;;;;;10.85;59.24;102575.00;5059847;28;20406;-72
2021/04/15 08:01:13;;;;;;;15.30;7.35;;;;;;;10.26;60.40;102574.38;5067663;28;21326;-72
2021/04/15 08:04:06;;;;;;;19.75;8.40;;;;;;;9.77;64.62;102566.13;5065979;28;20025;-73
2021/04/15 08:06:50;;;;;;;;;;;;;;;9.44;65.98;102573.41;5085528;28;20040;-72
2021/04/15 08:09:40;;;;;;;16.65;8.32;;;;;;;8.95;67.79;102582.00;5078316;28;20479;-72
2021/04/15 08:12:14;;;;;;;17.35;5.88;;;;;;;8.14;67.17;102573.41;5070801;28;20032;-72
2021/04/15 08:15:12;;;;;;;15.27;7.47;;;;;;;8.45;68.54;102576.22;5065663;28;20029;-72
2021/04/15 08:17:53;;;;;;;16.52;9.32;;;;;;;9.09;64.57;102575.31;5071049;28;20059;-72
2021/04/15 08:20:52;;;;;;;24.92;9.95;;;;;;;9.54;64.64;102573.09;5063540;28;20390;-72
2021/04/15 08:23:36;;;;;;;23.88;11.95;;;;;;;10.37;63.53;102574.88;5070582;28;20534;-73
2021/04/15 08:26:20;;;;;;;25.27;11.15;;;;;;;10.81;59.76;102589.44;5070819;28;20558;-73
2021/04/15 08:29:12;;;;;;;22.23;9.27;;;;;;;10.69;58.72;102583.63;5070040;28;20376;-73
2021/04/15 08:32:08;;;;;;;16.85;7.85;;;;;;;11.30;58.85;102587.66;5067850;28;20415;-73
2021/04/15 08:34:59;;;;;;;18.80;7.40;;;;;;;11.26;56.94;102575.28;5069546;28;20420;-73
2021/04/15 08:37:54;;;;;;;18.40;8.73;;;;;;;11.64;54.98;102584.56;5092579;23;20028;-71
2021/04/15 08:40:44;;;;;;;22.83;10.35;;;;;;;11.36;57.70;102588.31;5089987;28;20032;-71
2021/04/15 08:43:53;;;;;;;19.73;10.63;;;;;;;11.20;57.67;102587.13;5089395;28;20036;-71
2021/04/15 08:46:45;;;;;;;19.98;10.65;;;;;;;11.56;56.09;102590.22;5081029;28;20030;-71
2021/04/15 08:49:17;;;;;;;27.13;12.70;;;;;;;11.58;54.79;102584.81;5076491;28;20115;-71
2021/04/15 08:51:58;;;;;;;27.63;13.00;;;;;;;11.68;56.84;102588.88;5080807;28;20480;-71
2021/04/15 08:54:35;;;;;;;16.00;8.57;;;;;;;11.52;53.85;102594.00;5070220;28;20023;-71
2021/04/15 08:57:19;;;;;;;17.10;6.57;;;;;;;10.69;53.53;102589.00;5073501;28;20082;-71
2021/04/15 09:00:15;;;;;;;14.05;6.10;;;;;;;10.21;57.56;102589.75;5068337;28;20060;-71
2021/04/15 09:02:56;;;;;;;11.50;5.55;;;;;;;9.79;56.54;102583.06;5072737;28;20046;-71
2021/04/15 09:05:47;;;;;;;15.35;5.63;;;;;;;9.38;58.64;102587.00;5077308;28;20027;-71
2021/04/15 09:08:22;;;;;;;16.33;5.47;;;;;;;9.06;60.17;102586.13;5074381;28;20031;-71
2021/04/15 09:11:07;;;;;;;12.55;5.88;;;;;;;9.21;60.57;102585.69;5074346;28;20035;-71
2021/04/15 09:14:05;;;;;;;20.13;6.75;;;;;;;9.34;59.50;102592.44;5074250;28;20538;-71
2021/04/15 09:16:43;;;;;;;14.50;6.55;;;;;;;9.19;59.72;102581.31;5078600;28;20026;-71
2021/04/15 09:19:15;;;;;;;14.68;6.05;;;;;;;9.08;59.45;102594.09;5071086;28;20488;-71
2021/04/15 09:21:50;;;;;;;20.07;6.40;;;;;;;9.03;59.94;102588.88;5082202;28;20028;-71
2021/04/15 09:24:30;;;;;;;21.30;7.10;;;;;;;9.37;59.30;102586.13;5079849;28;20111;-71
2021/04/15 09:27:21;;;;;;;15.30;6.28;;;;;;;9.18;59.50;102590.25;5055029;28;20433;-71
2021/04/15 09:29:52;;;;;;;23.27;12.77;;;;;;;9.19;61.71;102592.03;5072020;28;20036;-71
2021/04/15 09:32:26;;;;;;;25.02;10.02;;;;;;;9.25;63.40;102586.47;5050890;28;20042;-71
2021/04/15 09:35:04;;;;;;;26.27;14.68;;;;;;;9.54;63.79;102589.19;5070429;28;20158;-71
2021/04/15 09:38:04;;;;;;;18.98;9.48;;;;;;;9.57;63.09;102594.44;5073372;28;20047;-71
2021/04/15 09:40:53;;;;;;;9.85;5.68;;;;;;;9.53;58.05;102589.22;5065412;28;20486;-71
2021/04/15 09:43:37;;;;;;;13.35;7.00;;;;;;;10.40;55.43;102581.97;5067601;28;20039;-71
2021/04/15 09:46:30;;;;;;;16.02;7.28;;;;;;;10.99;54.12;102589.72;5081981;28;20035;-71
2021/04/15 09:49:15;;;;;;;20.88;7.57;;;;;;;10.99;52.06;102587.91;5068667;28;20158;-71
2021/04/15 09:51:46;;;;;;;19.10;7.68;;;;;;;11.14;51.69;102591.84;5070473;28;20131;-71
2021/04/15 09:54:48;;;;;;;14.93;7.25;;;;;;;10.75;50.73;102594.16;5081592;28;20027;-71
2021/04/15 09:57:25;;;;;;;11.40;7.15;;;;;;;10.45;53.65;102580.88;5085372;28;20047;-71
2021/04/15 10:00:06;;;;;;;16.25;7.78;;;;;;;10.49;54.98;102581.66;5067994;28;20093;-71
2021/04/15 10:02:56;;;;;;;17.77;6.75;;;;;;;10.02;54.93;102577.81;5083765;28;20519;-71
2021/04/15 10:06:04;;;;;;;16.75;6.78;;;;;;;9.56;56.50;102575.72;5063827;28;20037;-71
2021/04/15 10:08:29;;;;;;;15.43;7.30;;;;;;;9.58;57.43;102569.38;5049955;28;20036;-71
2021/04/15 10:11:06;;;;;;;16.88;6.45;;;;;;;9.54;57.22;102577.56;5075185;28;20487;-71
2021/04/15 10:13:38;;;;;;;22.33;8.43;;;;;;;9.36;57.23;102579.00;5083232;28;20032;-71
2021/04/15 10:16:12;;;;;;;10.15;6.55;;;;;;;9.33;58.11;102568.34;5071369;28;20063;-71
2021/04/15 10:18:59;;;;;;;13.75;6.93;;;;;;;9.32;57.74;102572.84;5080286;28;20036;-71
2021/04/15 10:22:03;;;;;;;14.57;7.97;;;;;;;9.39;56.16;102572.66;5071810;28;20036;-71
2021/04/15 10:24:46;;;;;;;18.45;7.50;;;;;;;9.54;56.19;102573.09;5055202;28;21459;-71
2021/04/15 10:27:24;;;;;;;21.33;9.50;;;;;;;9.63;56.46;102567.44;5080637;28;20043;-71
2021/04/15 10:30:14;;;;;;;15.38;7.63;;;;;;;9.56;55.60;102571.25;5066978;28;20036;-71
2021/04/15 10:32:48;;;;;;;10.45;6.25;;;;;;;9.55;56.90;102573.97;5073573;28;20097;-72
2021/04/15 10:35:52;;;;;;;15.25;5.68;;;;;;;10.09;54.96;102571.34;5082492;28;20044;-71
2021/04/15 10:38:36;;;;;;;;;;;;;;;10.00;51.51;102568.94;5066586;28;20029;-72
2021/04/15 10:41:15;;;;;;;10.88;5.95;;;;;;;9.77;51.98;102568.81;5081095;28;20380;-71
2021/04/15 10:43:56;;;;;;;12.32;6.85;;;;;;;9.93;51.44;102576.34;5078989;28;20036;-71
2021/04/15 10:46:36;;;;;;;14.43;7.25;;;;;;;9.85;50.30;102566.75;5067086;28;20746;-71
2021/04/15 10:49:26;;;;;;;18.10;8.50;;;;;;;9.78;51.13;102565.19;5087591;28;20028;-71
2021/04/15 10:51:59;;;;;;;17.90;7.15;;;;;;;9.62;50.91;102563.00;5077031;28;20495;-72
2021/04/15 10:54:24;;;;;;;;;;;;;;;9.73;50.49;102566.25;5071908;28;20047;-71
2021/04/15 10:56:54;;;;;;;19.63;8.52;;;;;;;9.94;51.08;102569.13;5091554;28;19912;-72
2021/04/15 10:59:35;;;;;;;23.15;6.78;;;;;;;10.01;50.09;102562.66;5079898;28;20037;-71
2021/04/15 11:02:29;;;;;;;11.70;6.05;;;;;;;10.19;49.30;102570.13;5071361;28;20391;-71
2021/04/15 11:05:15;;;;;;;12.05;5.68;;;;;;;10.25;49.49;102567.25;5071149;28;20049;-71
2021/04/15 11:07:41;;;;;;;20.10;8.00;;;;;;;10.10;48.55;102559.69;5071423;28;20036;-71
2021/04/15 11:10:35;;;;;;;24.55;8.43;;;;;;;10.26;49.21;102557.38;5087684;28;20036;-71
2021/04/15 11:13:22;;;;;;;11.88;5.03;;;;;;;10.58;50.61;102554.47;5078515;28;20572;-72
2021/04/15 11:15:57;;;;;;;9.70;4.80;;;;;;;10.73;49.48;102553.06;5070640;28;20106;-71
2021/04/15 11:18:30;;;;;;;8.20;4.75;;;;;;;10.95;44.08;102556.72;5068027;28;20090;-72
2021/04/15 11:21:21;;;;;;;9.55;4.72;;;;;;;11.15;44.89;102553.31;5070528;28;20037;-71
2021/04/15 11:23:53;;;;;;;9.60;3.90;;;;;;;11.33;43.39;102545.41;5068358;28;20048;-72
2021/04/15 11:26:41;;;;;;;8.73;4.05;;;;;;;11.31;45.53;102547.28;5082086;28;20047;-72
2021/04/15 11:29:20;;;;;;;9.20;3.78;;;;;;;11.27;45.33;102545.66;5076018;28;20071;-71
2021/04/15 11:31:46;;;;;;;7.55;3.65;;;;;;;11.39;47.17;102538.03;5070699;28;20115;-71
2021/04/15 11:34:21;;;;;;;7.40;3.55;;;;;;;11.20;45.64;102533.38;5068373;28;20036;-72
2021/04/15 11:36:55;;;;;;;7.88;5.03;;;;;;;11.01;45.11;102537.69;5072607;28;20236;-72
2021/04/15 11:39:24;;;;;;;8.45;3.15;;;;;;;11.09;43.55;102535.59;5060439;28;20032;-72
2021/04/15 11:41:57;;;;;;;8.63;3.78;;;;;;;11.19;45.17;102531.63;5067985;28;20477;-72
2021/04/15 11:44:22;;;;;;;;;;;;;;;11.56;44.56;102525.69;5065729;28;20060;-72
2021/04/15 11:46:48;;;;;;;9.03;3.63;;;;;;;11.63;45.74;102516.44;5069526;28;20288;-72
2021/04/15 11:49:36;;;;;;;34.33;12.15;;;;;;;11.63;44.73;102521.81;5069802;28;20365;-72
2021/04/15 11:52:32;;;;;;;8.30;3.40;;;;;;;11.55;43.06;102518.53;5084272;28;20029;-72
2021/04/15 11:54:57;;;;;;;6.13;2.83;;;;;;;11.25;44.52;102525.13;5065680;28;20087;-72
2021/04/15 11:57:33;;;;;;;8.27;3.00;;;;;;;11.09;45.26;102526.66;5068590;28;20048;-72
2021/04/15 11:59:59;;;;;;;12.70;3.90;;;;;;;11.24;44.89;102513.50;5065837;28;20041;-72
2021/04/15 12:02:38;;;;;;;11.50;3.47;;;;;;;11.25;43.07;102511.69;5070233;28;20032;-72
2021/04/15 12:05:37;;;;;;;5.53;2.92;;;;;;;11.48;44.04;102510.81;5065764;28;20032;-72
2021/04/15 12:08:22;;;;;;;5.35;3.38;;;;;;;11.58;44.11;102510.38;5065895;28;20047;-72
2021/04/15 12:10:57;;;;;;;10.13;4.20;;;;;;;11.50;44.63;102515.16;5069233;28;20522;-72